sensor_id;sensor_type;location;lat;lon;timestamp;P1;durP1;ratioP1;P2;durP2;ratioP2
46284;SDS011;32018;59.182;18.148;2024-02-15T00:01:03;3.03;;;2.72;;
46284;SDS011;32018;59.182;18.148;2024-02-15T00:03:29;3.83;;;3.53;;
46284;SDS011;32018;59.182;18.148;2024-02-15T00:05:54;3.03;;;2.83;;
46284;SDS011;32018;59.182;18.148;2024-02-15T00:08:20;4.13;;;3.55;;
46284;SDS011;32018;59.182;18.148;2024-02-15T00:10:46;5.35;;;4.85;;
46284;SDS011;32018;59.182;18.148;2024-02-15T00:13:12;6.72;;;4.43;;
46284;SDS011;32018;59.182;18.148;2024-02-15T00:15:37;5.47;;;3.95;;
46284;SDS011;32018;59.182;18.148;2024-02-15T00:18:02;2.78;;;2.58;;
46284;SDS011;32018;59.182;18.148;2024-02-15T00:20:28;3.03;;;2.60;;
46284;SDS011;32018;59.182;18.148;2024-02-15T00:22:53;3.45;;;2.80;;
46284;SDS011;32018;59.182;18.148;2024-02-15T00:25:20;4.57;;;3.33;;
46284;SDS011;32018;59.182;18.148;2024-02-15T00:27:46;3.17;;;2.80;;
46284;SDS011;32018;59.182;18.148;2024-02-15T00:30:11;3.38;;;3.08;;
46284;SDS011;32018;59.182;18.148;2024-02-15T00:32:37;3.75;;;3.45;;
46284;SDS011;32018;59.182;18.148;2024-02-15T00:35:03;3.33;;;3.03;;
46284;SDS011;32018;59.182;18.148;2024-02-15T00:37:32;3.97;;;3.35;;
46284;SDS011;32018;59.182;18.148;2024-02-15T00:39:58;5.43;;;4.45;;
46284;SDS011;32018;59.182;18.148;2024-02-15T00:42:23;4.05;;;3.72;;
46284;SDS011;32018;59.182;18.148;2024-02-15T00:44:48;3.22;;;2.92;;
46284;SDS011;32018;59.182;18.148;2024-02-15T00:47:13;2.92;;;2.72;;
46284;SDS011;32018;59.182;18.148;2024-02-15T00:49:38;3.28;;;2.97;;
46284;SDS011;32018;59.182;18.148;2024-02-15T00:52:04;2.88;;;2.65;;
46284;SDS011;32018;59.182;18.148;2024-02-15T00:54:29;3.78;;;2.80;;
46284;SDS011;32018;59.182;18.148;2024-02-15T00:56:54;4.63;;;4.10;;
46284;SDS011;32018;59.182;18.148;2024-02-15T00:59:20;4.90;;;4.00;;
46284;SDS011;32018;59.182;18.148;2024-02-15T01:01:45;4.90;;;4.35;;
46284;SDS011;32018;59.182;18.148;2024-02-15T01:04:12;3.08;;;2.72;;
46284;SDS011;32018;59.182;18.148;2024-02-15T01:06:37;2.90;;;2.70;;
46284;SDS011;32018;59.182;18.148;2024-02-15T01:09:02;3.38;;;3.08;;
46284;SDS011;32018;59.182;18.148;2024-02-15T01:11:29;2.88;;;2.58;;
46284;SDS011;32018;59.182;18.148;2024-02-15T01:13:54;3.42;;;3.05;;
46284;SDS011;32018;59.182;18.148;2024-02-15T01:16:20;2.88;;;2.67;;
46284;SDS011;32018;59.182;18.148;2024-02-15T01:18:46;4.53;;;3.83;;
46284;SDS011;32018;59.182;18.148;2024-02-15T01:21:12;3.03;;;2.83;;
46284;SDS011;32018;59.182;18.148;2024-02-15T01:23:37;2.90;;;2.70;;
46284;SDS011;32018;59.182;18.148;2024-02-15T01:26:02;3.30;;;3.00;;
46284;SDS011;32018;59.182;18.148;2024-02-15T01:28:28;3.33;;;2.70;;
46284;SDS011;32018;59.182;18.148;2024-02-15T01:30:53;2.55;;;2.35;;
46284;SDS011;32018;59.182;18.148;2024-02-15T01:33:19;2.90;;;2.70;;
46284;SDS011;32018;59.182;18.148;2024-02-15T01:35:44;3.22;;;2.92;;
46284;SDS011;32018;59.182;18.148;2024-02-15T01:38:10;3.05;;;2.70;;
46284;SDS011;32018;59.182;18.148;2024-02-15T01:40:35;3.08;;;2.80;;
46284;SDS011;32018;59.182;18.148;2024-02-15T01:43:00;3.33;;;3.10;;
46284;SDS011;32018;59.182;18.148;2024-02-15T01:45:26;2.97;;;2.78;;
46284;SDS011;32018;59.182;18.148;2024-02-15T01:47:53;2.70;;;2.50;;
46284;SDS011;32018;59.182;18.148;2024-02-15T01:50:18;3.03;;;2.70;;
46284;SDS011;32018;59.182;18.148;2024-02-15T01:52:44;2.80;;;2.60;;
46284;SDS011;32018;59.182;18.148;2024-02-15T01:55:12;2.70;;;2.50;;
46284;SDS011;32018;59.182;18.148;2024-02-15T01:57:39;3.67;;;3.38;;
46284;SDS011;32018;59.182;18.148;2024-02-15T02:00:05;3.35;;;3.05;;
46284;SDS011;32018;59.182;18.148;2024-02-15T02:02:31;3.17;;;2.88;;
46284;SDS011;32018;59.182;18.148;2024-02-15T02:04:57;2.97;;;2.78;;
46284;SDS011;32018;59.182;18.148;2024-02-15T02:07:23;3.03;;;2.80;;
46284;SDS011;32018;59.182;18.148;2024-02-15T02:09:48;2.80;;;2.50;;
46284;SDS011;32018;59.182;18.148;2024-02-15T02:12:14;2.50;;;2.30;;
46284;SDS011;32018;59.182;18.148;2024-02-15T02:14:39;2.50;;;2.30;;
46284;SDS011;32018;59.182;18.148;2024-02-15T02:17:10;3.20;;;2.67;;
46284;SDS011;32018;59.182;18.148;2024-02-15T02:19:36;3.05;;;2.85;;
46284;SDS011;32018;59.182;18.148;2024-02-15T02:22:03;3.00;;;2.80;;
46284;SDS011;32018;59.182;18.148;2024-02-15T02:24:30;2.63;;;2.42;;
46284;SDS011;32018;59.182;18.148;2024-02-15T02:27:03;3.50;;;3.28;;
46284;SDS011;32018;59.182;18.148;2024-02-15T02:29:29;2.70;;;2.50;;
46284;SDS011;32018;59.182;18.148;2024-02-15T02:31:56;2.92;;;2.72;;
46284;SDS011;32018;59.182;18.148;2024-02-15T02:34:21;2.17;;;1.98;;
46284;SDS011;32018;59.182;18.148;2024-02-15T02:36:46;2.90;;;2.70;;
46284;SDS011;32018;59.182;18.148;2024-02-15T02:39:13;3.08;;;2.88;;
46284;SDS011;32018;59.182;18.148;2024-02-15T02:41:38;2.25;;;2.10;;
46284;SDS011;32018;59.182;18.148;2024-02-15T02:44:03;2.20;;;2.08;;
46284;SDS011;32018;59.182;18.148;2024-02-15T02:46:29;2.83;;;2.63;;
46284;SDS011;32018;59.182;18.148;2024-02-15T02:48:54;2.83;;;2.63;;
46284;SDS011;32018;59.182;18.148;2024-02-15T02:51:20;2.33;;;2.15;;
46284;SDS011;32018;59.182;18.148;2024-02-15T02:53:45;2.78;;;2.58;;
46284;SDS011;32018;59.182;18.148;2024-02-15T02:56:10;2.75;;;2.55;;
46284;SDS011;32018;59.182;18.148;2024-02-15T02:58:37;3.17;;;2.97;;
46284;SDS011;32018;59.182;18.148;2024-02-15T03:01:07;2.40;;;2.20;;
46284;SDS011;32018;59.182;18.148;2024-02-15T03:03:33;2.83;;;2.63;;
46284;SDS011;32018;59.182;18.148;2024-02-15T03:05:58;2.40;;;2.20;;
46284;SDS011;32018;59.182;18.148;2024-02-15T03:08:24;2.95;;;2.72;;
46284;SDS011;32018;59.182;18.148;2024-02-15T03:10:49;2.47;;;2.28;;
46284;SDS011;32018;59.182;18.148;2024-02-15T03:13:14;2.83;;;2.63;;
46284;SDS011;32018;59.182;18.148;2024-02-15T03:15:40;2.60;;;2.40;;
46284;SDS011;32018;59.182;18.148;2024-02-15T03:18:06;2.50;;;2.30;;
46284;SDS011;32018;59.182;18.148;2024-02-15T03:20:37;2.28;;;2.08;;
46284;SDS011;32018;59.182;18.148;2024-02-15T03:23:02;2.40;;;2.20;;
46284;SDS011;32018;59.182;18.148;2024-02-15T03:25:28;2.22;;;2.13;;
46284;SDS011;32018;59.182;18.148;2024-02-15T03:27:54;2.38;;;2.17;;
46284;SDS011;32018;59.182;18.148;2024-02-15T03:30:20;2.28;;;2.08;;
46284;SDS011;32018;59.182;18.148;2024-02-15T03:32:46;2.63;;;2.42;;
46284;SDS011;32018;59.182;18.148;2024-02-15T03:35:13;2.60;;;2.40;;
46284;SDS011;32018;59.182;18.148;2024-02-15T03:37:39;2.60;;;2.40;;
46284;SDS011;32018;59.182;18.148;2024-02-15T03:40:05;2.25;;;2.05;;
46284;SDS011;32018;59.182;18.148;2024-02-15T03:42:33;2.60;;;2.40;;
46284;SDS011;32018;59.182;18.148;2024-02-15T03:44:58;2.38;;;2.20;;
46284;SDS011;32018;59.182;18.148;2024-02-15T03:47:23;2.20;;;2.10;;
46284;SDS011;32018;59.182;18.148;2024-02-15T03:49:49;2.70;;;2.50;;
46284;SDS011;32018;59.182;18.148;2024-02-15T03:52:14;2.40;;;2.20;;
46284;SDS011;32018;59.182;18.148;2024-02-15T03:54:40;2.55;;;2.35;;
46284;SDS011;32018;59.182;18.148;2024-02-15T03:57:08;2.30;;;2.20;;
46284;SDS011;32018;59.182;18.148;2024-02-15T03:59:33;2.40;;;2.20;;
46284;SDS011;32018;59.182;18.148;2024-02-15T04:02:00;1.98;;;1.88;;
46284;SDS011;32018;59.182;18.148;2024-02-15T04:04:27;2.50;;;2.30;;
46284;SDS011;32018;59.182;18.148;2024-02-15T04:06:55;2.05;;;1.95;;
46284;SDS011;32018;59.182;18.148;2024-02-15T04:09:21;2.08;;;1.98;;
46284;SDS011;32018;59.182;18.148;2024-02-15T04:11:46;2.47;;;2.28;;
46284;SDS011;32018;59.182;18.148;2024-02-15T04:14:15;2.55;;;2.35;;
46284;SDS011;32018;59.182;18.148;2024-02-15T04:16:40;2.05;;;1.95;;
46284;SDS011;32018;59.182;18.148;2024-02-15T04:19:05;2.60;;;2.40;;
46284;SDS011;32018;59.182;18.148;2024-02-15T04:21:30;2.10;;;2.00;;
46284;SDS011;32018;59.182;18.148;2024-02-15T04:23:56;2.22;;;2.13;;
46284;SDS011;32018;59.182;18.148;2024-02-15T04:26:21;2.28;;;2.17;;
46284;SDS011;32018;59.182;18.148;2024-02-15T04:28:46;2.05;;;1.90;;
46284;SDS011;32018;59.182;18.148;2024-02-15T04:31:17;2.17;;;2.08;;
46284;SDS011;32018;59.182;18.148;2024-02-15T04:33:43;2.00;;;1.90;;
46284;SDS011;32018;59.182;18.148;2024-02-15T04:36:08;2.10;;;2.00;;
46284;SDS011;32018;59.182;18.148;2024-02-15T04:38:33;1.88;;;1.77;;
46284;SDS011;32018;59.182;18.148;2024-02-15T04:41:01;1.83;;;1.73;;
46284;SDS011;32018;59.182;18.148;2024-02-15T04:43:29;2.22;;;2.03;;
46284;SDS011;32018;59.182;18.148;2024-02-15T04:45:54;1.98;;;1.80;;
46284;SDS011;32018;59.182;18.148;2024-02-15T04:48:19;2.30;;;2.10;;
46284;SDS011;32018;59.182;18.148;2024-02-15T04:50:44;2.50;;;2.30;;
46284;SDS011;32018;59.182;18.148;2024-02-15T04:53:10;1.90;;;1.80;;
46284;SDS011;32018;59.182;18.148;2024-02-15T04:55:36;2.40;;;2.22;;
46284;SDS011;32018;59.182;18.148;2024-02-15T04:58:01;2.28;;;2.17;;
46284;SDS011;32018;59.182;18.148;2024-02-15T05:00:26;2.17;;;2.08;;
46284;SDS011;32018;59.182;18.148;2024-02-15T05:02:52;2.35;;;2.15;;
46284;SDS011;32018;59.182;18.148;2024-02-15T05:05:17;2.50;;;2.30;;
46284;SDS011;32018;59.182;18.148;2024-02-15T05:07:43;1.98;;;1.88;;
46284;SDS011;32018;59.182;18.148;2024-02-15T05:10:08;2.08;;;1.98;;
46284;SDS011;32018;59.182;18.148;2024-02-15T05:12:34;1.88;;;1.77;;
46284;SDS011;32018;59.182;18.148;2024-02-15T05:15:00;1.98;;;1.88;;
46284;SDS011;32018;59.182;18.148;2024-02-15T05:17:25;2.33;;;2.20;;
46284;SDS011;32018;59.182;18.148;2024-02-15T05:19:50;2.15;;;2.05;;
46284;SDS011;32018;59.182;18.148;2024-02-15T05:22:15;2.00;;;1.90;;
46284;SDS011;32018;59.182;18.148;2024-02-15T05:24:41;1.88;;;1.77;;
46284;SDS011;32018;59.182;18.148;2024-02-15T05:27:06;2.08;;;1.90;;
46284;SDS011;32018;59.182;18.148;2024-02-15T05:29:31;2.30;;;2.10;;
46284;SDS011;32018;59.182;18.148;2024-02-15T05:31:59;2.00;;;1.90;;
46284;SDS011;32018;59.182;18.148;2024-02-15T05:34:25;2.42;;;2.22;;
46284;SDS011;32018;59.182;18.148;2024-02-15T05:36:50;2.40;;;2.20;;
46284;SDS011;32018;59.182;18.148;2024-02-15T05:39:16;2.00;;;1.90;;
46284;SDS011;32018;59.182;18.148;2024-02-15T05:41:47;1.83;;;1.73;;
46284;SDS011;32018;59.182;18.148;2024-02-15T05:44:13;2.38;;;2.17;;
46284;SDS011;32018;59.182;18.148;2024-02-15T05:46:43;2.33;;;2.13;;
46284;SDS011;32018;59.182;18.148;2024-02-15T05:49:09;2.35;;;2.15;;
46284;SDS011;32018;59.182;18.148;2024-02-15T05:51:40;1.77;;;1.67;;
46284;SDS011;32018;59.182;18.148;2024-02-15T05:54:05;2.35;;;2.15;;
46284;SDS011;32018;59.182;18.148;2024-02-15T05:56:30;2.17;;;2.00;;
46284;SDS011;32018;59.182;18.148;2024-02-15T05:58:55;2.17;;;2.08;;
46284;SDS011;32018;59.182;18.148;2024-02-15T06:01:22;2.58;;;2.10;;
46284;SDS011;32018;59.182;18.148;2024-02-15T06:03:49;2.40;;;2.20;;
46284;SDS011;32018;59.182;18.148;2024-02-15T06:06:14;2.28;;;2.17;;
46284;SDS011;32018;59.182;18.148;2024-02-15T06:08:41;1.98;;;1.88;;
46284;SDS011;32018;59.182;18.148;2024-02-15T06:11:07;2.40;;;2.20;;
46284;SDS011;32018;59.182;18.148;2024-02-15T06:13:34;2.50;;;2.30;;
46284;SDS011;32018;59.182;18.148;2024-02-15T06:15:59;2.05;;;1.95;;
46284;SDS011;32018;59.182;18.148;2024-02-15T06:18:25;2.60;;;2.40;;
46284;SDS011;32018;59.182;18.148;2024-02-15T06:20:52;2.53;;;2.33;;
46284;SDS011;32018;59.182;18.148;2024-02-15T06:23:18;2.72;;;2.53;;
46284;SDS011;32018;59.182;18.148;2024-02-15T06:25:43;2.97;;;2.78;;
46284;SDS011;32018;59.182;18.148;2024-02-15T06:28:09;3.00;;;2.80;;
46284;SDS011;32018;59.182;18.148;2024-02-15T06:31:00;2.45;;;2.25;;
46284;SDS011;32018;59.182;18.148;2024-02-15T06:33:44;2.33;;;2.13;;
46284;SDS011;32018;59.182;18.148;2024-02-15T06:36:28;2.55;;;2.35;;
46284;SDS011;32018;59.182;18.148;2024-02-15T06:39:11;2.78;;;2.58;;
46284;SDS011;32018;59.182;18.148;2024-02-15T06:41:55;3.80;;;3.50;;
46284;SDS011;32018;59.182;18.148;2024-02-15T06:44:21;2.90;;;2.70;;
46284;SDS011;32018;59.182;18.148;2024-02-15T06:46:48;4.60;;;4.20;;
46284;SDS011;32018;59.182;18.148;2024-02-15T06:49:15;2.50;;;2.30;;
46284;SDS011;32018;59.182;18.148;2024-02-15T06:51:40;6.10;;;5.60;;
46284;SDS011;32018;59.182;18.148;2024-02-15T06:54:05;7.70;;;7.00;;
46284;SDS011;32018;59.182;18.148;2024-02-15T06:56:35;2.60;;;2.40;;
46284;SDS011;32018;59.182;18.148;2024-02-15T06:59:00;2.88;;;2.67;;
46284;SDS011;32018;59.182;18.148;2024-02-15T07:01:26;2.63;;;2.42;;
46284;SDS011;32018;59.182;18.148;2024-02-15T07:03:51;3.10;;;2.90;;
46284;SDS011;32018;59.182;18.148;2024-02-15T07:06:16;2.45;;;2.25;;
46284;SDS011;32018;59.182;18.148;2024-02-15T07:08:42;3.25;;;2.95;;
46284;SDS011;32018;59.182;18.148;2024-02-15T07:11:07;3.25;;;2.95;;
46284;SDS011;32018;59.182;18.148;2024-02-15T07:13:34;3.10;;;2.90;;
46284;SDS011;32018;59.182;18.148;2024-02-15T07:16:00;3.25;;;2.95;;
46284;SDS011;32018;59.182;18.148;2024-02-15T07:18:25;3.63;;;3.33;;
46284;SDS011;32018;59.182;18.148;2024-02-15T07:20:50;3.42;;;3.13;;
46284;SDS011;32018;59.182;18.148;2024-02-15T07:23:15;2.88;;;2.67;;
46284;SDS011;32018;59.182;18.148;2024-02-15T07:25:41;3.20;;;2.90;;
46284;SDS011;32018;59.182;18.148;2024-02-15T07:28:06;7.18;;;6.57;;
46284;SDS011;32018;59.182;18.148;2024-02-15T07:30:34;3.25;;;2.97;;
46284;SDS011;32018;59.182;18.148;2024-02-15T07:32:59;3.75;;;3.45;;
46284;SDS011;32018;59.182;18.148;2024-02-15T07:35:25;5.18;;;4.78;;
46284;SDS011;32018;59.182;18.148;2024-02-15T07:37:53;4.10;;;3.80;;
46284;SDS011;32018;59.182;18.148;2024-02-15T07:40:20;3.92;;;3.63;;
46284;SDS011;32018;59.182;18.148;2024-02-15T07:42:47;4.85;;;4.45;;
46284;SDS011;32018;59.182;18.148;2024-02-15T07:45:12;3.60;;;3.30;;
46284;SDS011;32018;59.182;18.148;2024-02-15T07:47:37;3.53;;;3.22;;
46284;SDS011;32018;59.182;18.148;2024-02-15T07:50:03;3.92;;;3.63;;
46284;SDS011;32018;59.182;18.148;2024-02-15T07:52:30;3.95;;;3.65;;
46284;SDS011;32018;59.182;18.148;2024-02-15T07:54:55;4.30;;;3.92;;
46284;SDS011;32018;59.182;18.148;2024-02-15T07:57:21;4.00;;;3.70;;
46284;SDS011;32018;59.182;18.148;2024-02-15T07:59:46;5.72;;;5.22;;
46284;SDS011;32018;59.182;18.148;2024-02-15T08:02:13;4.50;;;4.20;;
46284;SDS011;32018;59.182;18.148;2024-02-15T08:04:42;4.13;;;3.83;;
46284;SDS011;32018;59.182;18.148;2024-02-15T08:07:09;4.82;;;4.53;;
46284;SDS011;32018;59.182;18.148;2024-02-15T08:09:36;3.85;;;3.55;;
46284;SDS011;32018;59.182;18.148;2024-02-15T08:12:01;4.88;;;4.47;;
46284;SDS011;32018;59.182;18.148;2024-02-15T08:14:28;3.88;;;3.58;;
46284;SDS011;32018;59.182;18.148;2024-02-15T08:16:53;5.15;;;4.80;;
46284;SDS011;32018;59.182;18.148;2024-02-15T08:19:20;6.97;;;6.43;;
46284;SDS011;32018;59.182;18.148;2024-02-15T08:21:47;3.70;;;3.40;;
46284;SDS011;32018;59.182;18.148;2024-02-15T08:24:15;5.80;;;5.30;;
46284;SDS011;32018;59.182;18.148;2024-02-15T08:26:42;3.75;;;3.45;;
46284;SDS011;32018;59.182;18.148;2024-02-15T08:29:07;4.88;;;4.47;;
46284;SDS011;32018;59.182;18.148;2024-02-15T08:31:32;6.85;;;6.28;;
46284;SDS011;32018;59.182;18.148;2024-02-15T08:34:01;8.40;;;7.70;;
46284;SDS011;32018;59.182;18.148;2024-02-15T08:36:26;4.95;;;4.55;;
46284;SDS011;32018;59.182;18.148;2024-02-15T08:38:51;5.32;;;4.93;;
46284;SDS011;32018;59.182;18.148;2024-02-15T08:41:17;4.80;;;4.40;;
46284;SDS011;32018;59.182;18.148;2024-02-15T08:43:46;4.95;;;4.65;;
46284;SDS011;32018;59.182;18.148;2024-02-15T08:46:13;4.60;;;4.20;;
46284;SDS011;32018;59.182;18.148;2024-02-15T08:48:38;4.65;;;4.25;;
46284;SDS011;32018;59.182;18.148;2024-02-15T08:51:04;13.00;;;11.60;;
46284;SDS011;32018;59.182;18.148;2024-02-15T08:53:30;14.40;;;10.90;;
46284;SDS011;32018;59.182;18.148;2024-02-15T08:55:57;5.30;;;4.90;;
46284;SDS011;32018;59.182;18.148;2024-02-15T08:58:22;6.60;;;4.70;;
46284;SDS011;32018;59.182;18.148;2024-02-15T09:00:48;6.07;;;5.57;;
46284;SDS011;32018;59.182;18.148;2024-02-15T09:03:13;6.18;;;5.32;;
46284;SDS011;32018;59.182;18.148;2024-02-15T09:05:39;7.45;;;6.85;;
46284;SDS011;32018;59.182;18.148;2024-02-15T09:08:05;5.63;;;5.22;;
46284;SDS011;32018;59.182;18.148;2024-02-15T09:10:30;7.93;;;7.22;;
46284;SDS011;32018;59.182;18.148;2024-02-15T09:12:56;7.25;;;6.75;;
46284;SDS011;32018;59.182;18.148;2024-02-15T09:15:21;12.30;;;8.60;;
46284;SDS011;32018;59.182;18.148;2024-02-15T09:17:47;6.18;;;5.68;;
46284;SDS011;32018;59.182;18.148;2024-02-15T09:20:12;5.88;;;5.43;;
46284;SDS011;32018;59.182;18.148;2024-02-15T09:25:11;5.65;;;5.25;;
46284;SDS011;32018;59.182;18.148;2024-02-15T09:27:38;6.07;;;5.57;;
46284;SDS011;32018;59.182;18.148;2024-02-15T09:30:03;6.63;;;6.05;;
46284;SDS011;32018;59.182;18.148;2024-02-15T09:32:32;5.85;;;5.45;;
46284;SDS011;32018;59.182;18.148;2024-02-15T09:34:57;5.70;;;5.30;;
46284;SDS011;32018;59.182;18.148;2024-02-15T09:37:23;6.38;;;5.88;;
46284;SDS011;32018;59.182;18.148;2024-02-15T09:39:49;5.68;;;5.28;;
46284;SDS011;32018;59.182;18.148;2024-02-15T09:42:14;6.28;;;5.85;;
46284;SDS011;32018;59.182;18.148;2024-02-15T09:44:39;5.50;;;5.10;;
46284;SDS011;32018;59.182;18.148;2024-02-15T09:47:05;7.32;;;6.82;;
46284;SDS011;32018;59.182;18.148;2024-02-15T09:49:35;5.68;;;5.28;;
46284;SDS011;32018;59.182;18.148;2024-02-15T09:52:00;5.68;;;5.28;;
46284;SDS011;32018;59.182;18.148;2024-02-15T09:54:28;6.00;;;5.55;;
46284;SDS011;32018;59.182;18.148;2024-02-15T09:56:54;5.68;;;5.28;;
46284;SDS011;32018;59.182;18.148;2024-02-15T09:59:19;6.18;;;5.78;;
46284;SDS011;32018;59.182;18.148;2024-02-15T10:01:45;5.60;;;5.20;;
46284;SDS011;32018;59.182;18.148;2024-02-15T10:04:12;5.45;;;5.10;;
46284;SDS011;32018;59.182;18.148;2024-02-15T10:06:41;5.85;;;5.45;;
46284;SDS011;32018;59.182;18.148;2024-02-15T10:09:25;5.70;;;5.25;;
46284;SDS011;32018;59.182;18.148;2024-02-15T10:11:53;6.43;;;5.93;;
46284;SDS011;32018;59.182;18.148;2024-02-15T10:14:20;6.13;;;5.38;;
46284;SDS011;32018;59.182;18.148;2024-02-15T10:16:46;11.50;;;10.40;;
46284;SDS011;32018;59.182;18.148;2024-02-15T10:19:11;10.75;;;8.85;;
46284;SDS011;32018;59.182;18.148;2024-02-15T10:21:37;10.82;;;9.93;;
46284;SDS011;32018;59.182;18.148;2024-02-15T10:24:06;6.22;;;5.72;;
46284;SDS011;32018;59.182;18.148;2024-02-15T10:26:33;6.38;;;5.93;;
46284;SDS011;32018;59.182;18.148;2024-02-15T10:29:06;6.60;;;6.00;;
46284;SDS011;32018;59.182;18.148;2024-02-15T10:31:34;5.63;;;5.22;;
46284;SDS011;32018;59.182;18.148;2024-02-15T10:34:01;7.07;;;6.47;;
46284;SDS011;32018;59.182;18.148;2024-02-15T10:36:29;11.15;;;10.23;;
46284;SDS011;32018;59.182;18.148;2024-02-15T10:39:01;7.43;;;6.82;;
46284;SDS011;32018;59.182;18.148;2024-02-15T10:41:35;8.07;;;7.47;;
46284;SDS011;32018;59.182;18.148;2024-02-15T10:44:01;12.73;;;11.43;;
46284;SDS011;32018;59.182;18.148;2024-02-15T10:46:27;10.23;;;9.32;;
46284;SDS011;32018;59.182;18.148;2024-02-15T10:48:52;7.97;;;7.38;;
46284;SDS011;32018;59.182;18.148;2024-02-15T10:51:18;29.27;;;20.95;;
46284;SDS011;32018;59.182;18.148;2024-02-15T10:53:57;8.98;;;8.27;;
46284;SDS011;32018;59.182;18.148;2024-02-15T10:56:26;8.52;;;7.82;;
46284;SDS011;32018;59.182;18.148;2024-02-15T10:59:07;8.48;;;7.78;;
46284;SDS011;32018;59.182;18.148;2024-02-15T11:01:34;77.35;;;32.70;;
46284;SDS011;32018;59.182;18.148;2024-02-15T11:04:04;9.35;;;8.63;;
46284;SDS011;32018;59.182;18.148;2024-02-15T11:06:33;16.45;;;14.95;;
46284;SDS011;32018;59.182;18.148;2024-02-15T11:08:58;10.73;;;9.82;;
46284;SDS011;32018;59.182;18.148;2024-02-15T11:11:24;9.52;;;8.73;;
46284;SDS011;32018;59.182;18.148;2024-02-15T11:13:50;11.63;;;10.63;;
46284;SDS011;32018;59.182;18.148;2024-02-15T11:16:39;9.73;;;8.88;;
46284;SDS011;32018;59.182;18.148;2024-02-15T11:19:04;10.63;;;9.73;;
46284;SDS011;32018;59.182;18.148;2024-02-15T11:24:29;8.98;;;8.25;;
46284;SDS011;32018;59.182;18.148;2024-02-15T11:27:00;9.02;;;8.23;;
46284;SDS011;32018;59.182;18.148;2024-02-15T11:29:47;9.27;;;8.48;;
46284;SDS011;32018;59.182;18.148;2024-02-15T11:35:11;10.73;;;9.93;;
46284;SDS011;32018;59.182;18.148;2024-02-15T11:42:58;10.52;;;9.70;;
46284;SDS011;32018;59.182;18.148;2024-02-15T11:45:26;9.30;;;8.60;;
46284;SDS011;32018;59.182;18.148;2024-02-15T11:47:58;8.35;;;7.65;;
46284;SDS011;32018;59.182;18.148;2024-02-15T11:50:23;10.35;;;9.45;;
46284;SDS011;32018;59.182;18.148;2024-02-15T11:52:50;10.52;;;9.73;;
46284;SDS011;32018;59.182;18.148;2024-02-15T11:55:19;9.25;;;8.55;;
46284;SDS011;32018;59.182;18.148;2024-02-15T11:57:57;8.88;;;8.18;;
46284;SDS011;32018;59.182;18.148;2024-02-15T12:00:30;9.57;;;8.88;;
46284;SDS011;32018;59.182;18.148;2024-02-15T12:03:14;11.27;;;10.10;;
46284;SDS011;32018;59.182;18.148;2024-02-15T12:05:58;9.23;;;8.43;;
46284;SDS011;32018;59.182;18.148;2024-02-15T12:08:46;10.70;;;9.68;;
46284;SDS011;32018;59.182;18.148;2024-02-15T12:11:29;10.93;;;9.82;;
46284;SDS011;32018;59.182;18.148;2024-02-15T12:14:14;9.52;;;8.70;;
46284;SDS011;32018;59.182;18.148;2024-02-15T12:16:59;9.35;;;8.65;;
46284;SDS011;32018;59.182;18.148;2024-02-15T12:19:43;8.02;;;7.32;;
46284;SDS011;32018;59.182;18.148;2024-02-15T12:22:08;9.32;;;8.57;;
46284;SDS011;32018;59.182;18.148;2024-02-15T12:24:34;9.63;;;8.68;;
46284;SDS011;32018;59.182;18.148;2024-02-15T12:27:00;9.27;;;8.57;;
46284;SDS011;32018;59.182;18.148;2024-02-15T12:29:28;11.30;;;10.40;;
46284;SDS011;32018;59.182;18.148;2024-02-15T12:31:54;8.60;;;7.90;;
46284;SDS011;32018;59.182;18.148;2024-02-15T12:34:19;11.07;;;10.25;;
46284;SDS011;32018;59.182;18.148;2024-02-15T12:36:45;9.15;;;8.45;;
46284;SDS011;32018;59.182;18.148;2024-02-15T12:39:10;7.88;;;7.28;;
46284;SDS011;32018;59.182;18.148;2024-02-15T12:41:49;8.10;;;7.50;;
46284;SDS011;32018;59.182;18.148;2024-02-15T12:46:43;8.55;;;7.85;;
46284;SDS011;32018;59.182;18.148;2024-02-15T12:49:12;8.80;;;8.10;;
46284;SDS011;32018;59.182;18.148;2024-02-15T12:51:49;8.52;;;7.85;;
46284;SDS011;32018;59.182;18.148;2024-02-15T12:54:16;11.00;;;10.10;;
46284;SDS011;32018;59.182;18.148;2024-02-15T12:56:46;8.03;;;7.43;;
46284;SDS011;32018;59.182;18.148;2024-02-15T12:59:11;8.40;;;7.80;;
46284;SDS011;32018;59.182;18.148;2024-02-15T13:01:37;8.60;;;7.90;;
46284;SDS011;32018;59.182;18.148;2024-02-15T13:04:03;9.10;;;8.40;;
46284;SDS011;32018;59.182;18.148;2024-02-15T13:06:31;8.32;;;7.72;;
46284;SDS011;32018;59.182;18.148;2024-02-15T13:08:56;9.73;;;8.93;;
46284;SDS011;32018;59.182;18.148;2024-02-15T13:11:22;8.80;;;8.20;;
46284;SDS011;32018;59.182;18.148;2024-02-15T13:13:49;9.82;;;7.25;;
46284;SDS011;32018;59.182;18.148;2024-02-15T13:16:14;8.45;;;7.80;;
46284;SDS011;32018;59.182;18.148;2024-02-15T13:18:40;8.55;;;7.95;;
46284;SDS011;32018;59.182;18.148;2024-02-15T13:21:06;8.30;;;7.68;;
46284;SDS011;32018;59.182;18.148;2024-02-15T13:23:31;7.80;;;7.22;;
46284;SDS011;32018;59.182;18.148;2024-02-15T13:25:57;7.75;;;7.15;;
46284;SDS011;32018;59.182;18.148;2024-02-15T13:28:24;8.32;;;7.63;;
46284;SDS011;32018;59.182;18.148;2024-02-15T13:30:49;9.80;;;9.10;;
46284;SDS011;32018;59.182;18.148;2024-02-15T13:33:16;8.55;;;7.85;;
46284;SDS011;32018;59.182;18.148;2024-02-15T13:35:42;7.18;;;6.57;;
46284;SDS011;32018;59.182;18.148;2024-02-15T13:38:07;7.63;;;6.93;;
46284;SDS011;32018;59.182;18.148;2024-02-15T13:40:39;7.80;;;7.30;;
46284;SDS011;32018;59.182;18.148;2024-02-15T13:43:04;8.30;;;7.70;;
46284;SDS011;32018;59.182;18.148;2024-02-15T13:45:30;7.18;;;6.57;;
46284;SDS011;32018;59.182;18.148;2024-02-15T13:47:57;7.93;;;7.32;;
46284;SDS011;32018;59.182;18.148;2024-02-15T13:50:23;7.50;;;6.93;;
46284;SDS011;32018;59.182;18.148;2024-02-15T13:52:48;7.32;;;6.82;;
46284;SDS011;32018;59.182;18.148;2024-02-15T13:55:14;7.57;;;6.97;;
46284;SDS011;32018;59.182;18.148;2024-02-15T13:57:40;7.93;;;7.38;;
46284;SDS011;32018;59.182;18.148;2024-02-15T14:00:09;7.07;;;6.53;;
46284;SDS011;32018;59.182;18.148;2024-02-15T14:02:39;7.60;;;7.00;;
46284;SDS011;32018;59.182;18.148;2024-02-15T14:05:05;7.15;;;6.57;;
46284;SDS011;32018;59.182;18.148;2024-02-15T14:07:33;6.95;;;6.45;;
46284;SDS011;32018;59.182;18.148;2024-02-15T14:09:58;8.20;;;7.50;;
46284;SDS011;32018;59.182;18.148;2024-02-15T14:12:23;7.35;;;6.80;;
46284;SDS011;32018;59.182;18.148;2024-02-15T14:14:49;6.53;;;6.03;;
46284;SDS011;32018;59.182;18.148;2024-02-15T14:17:15;6.97;;;6.47;;
46284;SDS011;32018;59.182;18.148;2024-02-15T14:19:40;7.00;;;6.40;;
46284;SDS011;32018;59.182;18.148;2024-02-15T14:22:05;7.78;;;7.18;;
46284;SDS011;32018;59.182;18.148;2024-02-15T14:24:34;9.32;;;8.63;;
46284;SDS011;32018;59.182;18.148;2024-02-15T14:26:59;9.50;;;8.73;;
46284;SDS011;32018;59.182;18.148;2024-02-15T14:29:24;9.02;;;8.23;;
46284;SDS011;32018;59.182;18.148;2024-02-15T14:31:54;9.07;;;8.38;;
46284;SDS011;32018;59.182;18.148;2024-02-15T14:34:37;9.98;;;9.18;;
46284;SDS011;32018;59.182;18.148;2024-02-15T14:37:03;8.27;;;7.65;;
46284;SDS011;32018;59.182;18.148;2024-02-15T14:39:31;6.47;;;5.97;;
46284;SDS011;32018;59.182;18.148;2024-02-15T14:41:56;9.35;;;8.60;;
46284;SDS011;32018;59.182;18.148;2024-02-15T14:44:21;8.75;;;8.05;;
46284;SDS011;32018;59.182;18.148;2024-02-15T14:46:48;7.65;;;7.05;;
46284;SDS011;32018;59.182;18.148;2024-02-15T14:49:13;7.07;;;6.55;;